sensor_id;sensor_type;location;lat;lon;timestamp;P1;durP1;ratioP1;P2;durP2;ratioP2
52786;SDS011;38661;53.152;5.846;2023-10-13T00:02:01;112.15;;;44.90;;
52786;SDS011;38661;53.152;5.846;2023-10-13T00:04:30;117.45;;;47.67;;
52786;SDS011;38661;53.152;5.846;2023-10-13T00:07:03;108.78;;;44.97;;
52786;SDS011;38661;53.152;5.846;2023-10-13T00:09:33;109.82;;;46.75;;
52786;SDS011;38661;53.152;5.846;2023-10-13T00:12:02;123.80;;;47.38;;
52786;SDS011;38661;53.152;5.846;2023-10-13T00:14:38;122.03;;;49.03;;
52786;SDS011;38661;53.152;5.846;2023-10-13T00:17:06;127.25;;;48.85;;
52786;SDS011;38661;53.152;5.846;2023-10-13T00:19:36;128.63;;;48.30;;
52786;SDS011;38661;53.152;5.846;2023-10-13T00:22:09;127.60;;;48.20;;
52786;SDS011;38661;53.152;5.846;2023-10-13T00:24:38;111.70;;;44.85;;
52786;SDS011;38661;53.152;5.846;2023-10-13T00:27:29;134.23;;;48.50;;
52786;SDS011;38661;53.152;5.846;2023-10-13T00:30:05;116.65;;;46.22;;
52786;SDS011;38661;53.152;5.846;2023-10-13T00:32:48;102.53;;;43.75;;
52786;SDS011;38661;53.152;5.846;2023-10-13T00:35:18;117.70;;;46.25;;
52786;SDS011;38661;53.152;5.846;2023-10-13T00:37:53;111.10;;;45.78;;
52786;SDS011;38661;53.152;5.846;2023-10-13T00:40:21;111.72;;;45.08;;
52786;SDS011;38661;53.152;5.846;2023-10-13T00:42:56;96.72;;;43.17;;
52786;SDS011;38661;53.152;5.846;2023-10-13T00:45:42;107.70;;;44.05;;
52786;SDS011;38661;53.152;5.846;2023-10-13T00:48:27;100.68;;;41.55;;
52786;SDS011;38661;53.152;5.846;2023-10-13T00:50:58;95.80;;;39.72;;
52786;SDS011;38661;53.152;5.846;2023-10-13T00:53:28;84.97;;;40.45;;
52786;SDS011;38661;53.152;5.846;2023-10-13T00:56:00;80.20;;;38.38;;
52786;SDS011;38661;53.152;5.846;2023-10-13T00:58:32;78.88;;;36.90;;
52786;SDS011;38661;53.152;5.846;2023-10-13T01:01:04;60.17;;;31.35;;
52786;SDS011;38661;53.152;5.846;2023-10-13T01:03:51;65.82;;;35.47;;
52786;SDS011;38661;53.152;5.846;2023-10-13T01:06:30;62.92;;;30.80;;
52786;SDS011;38661;53.152;5.846;2023-10-13T01:09:00;51.55;;;28.75;;
52786;SDS011;38661;53.152;5.846;2023-10-13T01:11:38;45.22;;;26.20;;
52786;SDS011;38661;53.152;5.846;2023-10-13T01:14:09;43.95;;;25.30;;
52786;SDS011;38661;53.152;5.846;2023-10-13T01:16:40;44.17;;;23.55;;
52786;SDS011;38661;53.152;5.846;2023-10-13T01:19:18;35.90;;;19.85;;
52786;SDS011;38661;53.152;5.846;2023-10-13T01:21:49;34.17;;;20.17;;
52786;SDS011;38661;53.152;5.846;2023-10-13T01:24:20;32.67;;;19.20;;
52786;SDS011;38661;53.152;5.846;2023-10-13T01:26:49;29.52;;;18.27;;
52786;SDS011;38661;53.152;5.846;2023-10-13T01:29:18;32.10;;;18.15;;
52786;SDS011;38661;53.152;5.846;2023-10-13T01:31:44;26.75;;;16.00;;
52786;SDS011;38661;53.152;5.846;2023-10-13T01:34:15;27.63;;;17.00;;
52786;SDS011;38661;53.152;5.846;2023-10-13T01:36:54;20.75;;;13.75;;
52786;SDS011;38661;53.152;5.846;2023-10-13T01:39:21;25.40;;;13.90;;
52786;SDS011;38661;53.152;5.846;2023-10-13T01:41:57;24.52;;;12.25;;
52786;SDS011;38661;53.152;5.846;2023-10-13T01:44:26;19.98;;;12.63;;
52786;SDS011;38661;53.152;5.846;2023-10-13T01:46:58;18.55;;;11.82;;
52786;SDS011;38661;53.152;5.846;2023-10-13T01:49:31;16.20;;;11.30;;
52786;SDS011;38661;53.152;5.846;2023-10-13T01:52:06;16.90;;;10.27;;
52786;SDS011;38661;53.152;5.846;2023-10-13T01:54:33;13.38;;;10.45;;
52786;SDS011;38661;53.152;5.846;2023-10-13T01:56:59;15.93;;;10.18;;
52786;SDS011;38661;53.152;5.846;2023-10-13T01:59:25;18.40;;;10.98;;
52786;SDS011;38661;53.152;5.846;2023-10-13T02:01:52;17.00;;;10.73;;
52786;SDS011;38661;53.152;5.846;2023-10-13T02:04:21;16.58;;;11.27;;
52786;SDS011;38661;53.152;5.846;2023-10-13T02:06:47;16.40;;;12.30;;
52786;SDS011;38661;53.152;5.846;2023-10-13T02:09:12;21.13;;;12.05;;
52786;SDS011;38661;53.152;5.846;2023-10-13T02:11:42;22.75;;;13.70;;
52786;SDS011;38661;53.152;5.846;2023-10-13T02:14:12;23.25;;;15.15;;
52786;SDS011;38661;53.152;5.846;2023-10-13T02:16:41;22.65;;;13.40;;
52786;SDS011;38661;53.152;5.846;2023-10-13T02:19:07;25.92;;;16.48;;
52786;SDS011;38661;53.152;5.846;2023-10-13T02:21:34;25.13;;;16.25;;
52786;SDS011;38661;53.152;5.846;2023-10-13T02:24:10;27.33;;;18.70;;
52786;SDS011;38661;53.152;5.846;2023-10-13T02:26:43;37.30;;;21.33;;
52786;SDS011;38661;53.152;5.846;2023-10-13T02:29:09;35.78;;;19.83;;
52786;SDS011;38661;53.152;5.846;2023-10-13T02:31:39;33.42;;;20.75;;
52786;SDS011;38661;53.152;5.846;2023-10-13T02:34:07;39.83;;;20.58;;
52786;SDS011;38661;53.152;5.846;2023-10-13T02:36:37;39.20;;;22.08;;
52786;SDS011;38661;53.152;5.846;2023-10-13T02:39:19;39.30;;;22.63;;
52786;SDS011;38661;53.152;5.846;2023-10-13T02:41:52;41.05;;;23.42;;
52786;SDS011;38661;53.152;5.846;2023-10-13T02:44:20;42.47;;;25.35;;
52786;SDS011;38661;53.152;5.846;2023-10-13T02:46:54;45.67;;;25.20;;
52786;SDS011;38661;53.152;5.846;2023-10-13T02:49:26;49.88;;;27.30;;
52786;SDS011;38661;53.152;5.846;2023-10-13T02:51:56;50.20;;;25.73;;
52786;SDS011;38661;53.152;5.846;2023-10-13T02:54:25;53.13;;;27.45;;
52786;SDS011;38661;53.152;5.846;2023-10-13T02:56:56;54.22;;;30.10;;
52786;SDS011;38661;53.152;5.846;2023-10-13T02:59:26;51.47;;;29.17;;
52786;SDS011;38661;53.152;5.846;2023-10-13T03:02:10;54.33;;;29.85;;
52786;SDS011;38661;53.152;5.846;2023-10-13T03:04:47;58.83;;;30.52;;
52786;SDS011;38661;53.152;5.846;2023-10-13T03:07:13;55.55;;;29.45;;
52786;SDS011;38661;53.152;5.846;2023-10-13T03:09:49;42.50;;;26.58;;
52786;SDS011;38661;53.152;5.846;2023-10-13T03:12:19;54.20;;;28.55;;
52786;SDS011;38661;53.152;5.846;2023-10-13T03:14:45;56.20;;;31.15;;
52786;SDS011;38661;53.152;5.846;2023-10-13T03:17:14;60.70;;;30.83;;
52786;SDS011;38661;53.152;5.846;2023-10-13T03:19:42;56.15;;;30.23;;
52786;SDS011;38661;53.152;5.846;2023-10-13T03:22:15;60.67;;;29.60;;
52786;SDS011;38661;53.152;5.846;2023-10-13T03:24:42;54.47;;;29.38;;
52786;SDS011;38661;53.152;5.846;2023-10-13T03:27:12;51.28;;;30.55;;
52786;SDS011;38661;53.152;5.846;2023-10-13T03:29:42;60.97;;;30.15;;
52786;SDS011;38661;53.152;5.846;2023-10-13T03:32:14;49.40;;;29.15;;
52786;SDS011;38661;53.152;5.846;2023-10-13T03:34:44;52.35;;;30.48;;
52786;SDS011;38661;53.152;5.846;2023-10-13T03:37:26;48.03;;;27.33;;
52786;SDS011;38661;53.152;5.846;2023-10-13T03:40:11;45.72;;;26.60;;
52786;SDS011;38661;53.152;5.846;2023-10-13T03:42:49;43.47;;;25.00;;
52786;SDS011;38661;53.152;5.846;2023-10-13T03:45:45;44.88;;;25.42;;
52786;SDS011;38661;53.152;5.846;2023-10-13T03:48:17;46.03;;;24.88;;
52786;SDS011;38661;53.152;5.846;2023-10-13T03:50:51;35.00;;;22.08;;
52786;SDS011;38661;53.152;5.846;2023-10-13T03:53:35;39.65;;;23.83;;
52786;SDS011;38661;53.152;5.846;2023-10-13T03:56:15;30.77;;;20.55;;
52786;SDS011;38661;53.152;5.846;2023-10-13T03:58:57;29.25;;;18.38;;
52786;SDS011;38661;53.152;5.846;2023-10-13T04:01:28;29.02;;;18.90;;
52786;SDS011;38661;53.152;5.846;2023-10-13T04:03:58;30.77;;;19.13;;
52786;SDS011;38661;53.152;5.846;2023-10-13T04:06:37;31.48;;;19.42;;
52786;SDS011;38661;53.152;5.846;2023-10-13T04:09:29;30.80;;;19.58;;
52786;SDS011;38661;53.152;5.846;2023-10-13T04:11:58;26.95;;;18.75;;
52786;SDS011;38661;53.152;5.846;2023-10-13T04:14:32;24.85;;;16.50;;
52786;SDS011;38661;53.152;5.846;2023-10-13T04:17:22;24.67;;;15.93;;
52786;SDS011;38661;53.152;5.846;2023-10-13T04:19:48;28.80;;;17.10;;
52786;SDS011;38661;53.152;5.846;2023-10-13T04:28:01;35.95;;;20.98;;
52786;SDS011;38661;53.152;5.846;2023-10-13T04:30:40;36.45;;;22.27;;
52786;SDS011;38661;53.152;5.846;2023-10-13T04:33:21;40.85;;;25.73;;
52786;SDS011;38661;53.152;5.846;2023-10-13T04:36:09;38.92;;;23.13;;
52786;SDS011;38661;53.152;5.846;2023-10-13T04:38:49;35.78;;;23.08;;
52786;SDS011;38661;53.152;5.846;2023-10-13T04:41:35;33.20;;;21.35;;
52786;SDS011;38661;53.152;5.846;2023-10-13T04:44:23;33.42;;;20.27;;
52786;SDS011;38661;53.152;5.846;2023-10-13T04:46:56;30.05;;;19.30;;
52786;SDS011;38661;53.152;5.846;2023-10-13T04:49:26;32.33;;;20.25;;
52786;SDS011;38661;53.152;5.846;2023-10-13T04:52:11;38.88;;;21.17;;
52786;SDS011;38661;53.152;5.846;2023-10-13T04:54:37;34.35;;;20.98;;
52786;SDS011;38661;53.152;5.846;2023-10-13T05:02:29;27.83;;;18.63;;
52786;SDS011;38661;53.152;5.846;2023-10-13T05:05:06;29.60;;;17.83;;
52786;SDS011;38661;53.152;5.846;2023-10-13T05:08:08;29.08;;;18.95;;
52786;SDS011;38661;53.152;5.846;2023-10-13T05:10:53;33.65;;;19.85;;
52786;SDS011;38661;53.152;5.846;2023-10-13T05:13:38;27.63;;;17.83;;
52786;SDS011;38661;53.152;5.846;2023-10-13T05:16:22;28.63;;;16.92;;
52786;SDS011;38661;53.152;5.846;2023-10-13T05:19:06;25.05;;;15.85;;
52786;SDS011;38661;53.152;5.846;2023-10-13T05:21:50;26.05;;;16.80;;
52786;SDS011;38661;53.152;5.846;2023-10-13T05:24:34;27.58;;;16.58;;
52786;SDS011;38661;53.152;5.846;2023-10-13T05:27:18;28.00;;;17.10;;
52786;SDS011;38661;53.152;5.846;2023-10-13T05:30:02;24.77;;;14.60;;
52786;SDS011;38661;53.152;5.846;2023-10-13T05:35:31;19.50;;;13.00;;
52786;SDS011;38661;53.152;5.846;2023-10-13T05:38:16;18.02;;;12.15;;
52786;SDS011;38661;53.152;5.846;2023-10-13T05:41:01;18.42;;;12.18;;
52786;SDS011;38661;53.152;5.846;2023-10-13T05:43:46;18.20;;;13.25;;
52786;SDS011;38661;53.152;5.846;2023-10-13T05:49:02;11.65;;;8.07;;
52786;SDS011;38661;53.152;5.846;2023-10-13T05:51:41;8.30;;;6.60;;
52786;SDS011;38661;53.152;5.846;2023-10-13T05:54:08;10.07;;;7.68;;
52786;SDS011;38661;53.152;5.846;2023-10-13T05:59:25;13.00;;;8.65;;
52786;SDS011;38661;53.152;5.846;2023-10-13T06:02:10;10.30;;;7.97;;
52786;SDS011;38661;53.152;5.846;2023-10-13T06:04:55;11.20;;;8.18;;
52786;SDS011;38661;53.152;5.846;2023-10-13T06:07:39;10.52;;;7.93;;
52786;SDS011;38661;53.152;5.846;2023-10-13T06:10:23;10.27;;;7.45;;
52786;SDS011;38661;53.152;5.846;2023-10-13T06:13:08;10.85;;;7.72;;
52786;SDS011;38661;53.152;5.846;2023-10-13T06:15:52;11.60;;;8.70;;
52786;SDS011;38661;53.152;5.846;2023-10-13T06:18:36;12.93;;;8.65;;
52786;SDS011;38661;53.152;5.846;2023-10-13T06:21:20;8.45;;;6.47;;
52786;SDS011;38661;53.152;5.846;2023-10-13T06:24:05;8.40;;;6.22;;
52786;SDS011;38661;53.152;5.846;2023-10-13T06:26:51;11.43;;;5.97;;
52786;SDS011;38661;53.152;5.846;2023-10-13T06:29:35;10.82;;;6.28;;
52786;SDS011;38661;53.152;5.846;2023-10-13T06:32:01;10.05;;;7.18;;
52786;SDS011;38661;53.152;5.846;2023-10-13T06:34:38;8.90;;;6.82;;
52786;SDS011;38661;53.152;5.846;2023-10-13T06:40:12;8.65;;;7.13;;
52786;SDS011;38661;53.152;5.846;2023-10-13T06:43:04;11.25;;;6.18;;
52786;SDS011;38661;53.152;5.846;2023-10-13T06:45:45;12.57;;;6.38;;
52786;SDS011;38661;53.152;5.846;2023-10-13T06:48:31;8.30;;;4.72;;
52786;SDS011;38661;53.152;5.846;2023-10-13T06:50:59;11.70;;;5.13;;
52786;SDS011;38661;53.152;5.846;2023-10-13T06:53:45;12.13;;;4.68;;
52786;SDS011;38661;53.152;5.846;2023-10-13T06:56:19;13.40;;;5.80;;
52786;SDS011;38661;53.152;5.846;2023-10-13T06:58:51;11.13;;;5.63;;
52786;SDS011;38661;53.152;5.846;2023-10-13T07:01:25;10.00;;;5.68;;
52786;SDS011;38661;53.152;5.846;2023-10-13T07:03:51;18.52;;;5.57;;
52786;SDS011;38661;53.152;5.846;2023-10-13T07:06:26;15.13;;;5.53;;
52786;SDS011;38661;53.152;5.846;2023-10-13T07:08:54;12.90;;;5.72;;
52786;SDS011;38661;53.152;5.846;2023-10-13T07:11:25;19.75;;;7.00;;
52786;SDS011;38661;53.152;5.846;2023-10-13T07:14:03;11.07;;;5.55;;
52786;SDS011;38661;53.152;5.846;2023-10-13T07:16:42;15.70;;;5.88;;
52786;SDS011;38661;53.152;5.846;2023-10-13T07:19:12;12.38;;;5.57;;
52786;SDS011;38661;53.152;5.846;2023-10-13T07:21:48;15.40;;;6.25;;
52786;SDS011;38661;53.152;5.846;2023-10-13T07:24:30;14.90;;;6.85;;
52786;SDS011;38661;53.152;5.846;2023-10-13T07:27:03;19.53;;;6.90;;
52786;SDS011;38661;53.152;5.846;2023-10-13T07:29:31;18.58;;;6.88;;
52786;SDS011;38661;53.152;5.846;2023-10-13T07:32:00;13.15;;;6.90;;
52786;SDS011;38661;53.152;5.846;2023-10-13T07:38:03;15.32;;;6.43;;
52786;SDS011;38661;53.152;5.846;2023-10-13T07:40:33;17.05;;;7.97;;
52786;SDS011;38661;53.152;5.846;2023-10-13T07:42:59;20.80;;;7.22;;
52786;SDS011;38661;53.152;5.846;2023-10-13T07:45:30;17.88;;;7.93;;
52786;SDS011;38661;53.152;5.846;2023-10-13T07:48:03;18.08;;;8.70;;
52786;SDS011;38661;53.152;5.846;2023-10-13T07:50:44;21.63;;;8.27;;
52786;SDS011;38661;53.152;5.846;2023-10-13T07:53:11;17.23;;;7.28;;
52786;SDS011;38661;53.152;5.846;2023-10-13T07:55:52;17.00;;;7.20;;
52786;SDS011;38661;53.152;5.846;2023-10-13T07:58:23;23.67;;;7.55;;
52786;SDS011;38661;53.152;5.846;2023-10-13T08:00:53;18.63;;;7.63;;
52786;SDS011;38661;53.152;5.846;2023-10-13T08:03:31;17.58;;;7.95;;
52786;SDS011;38661;53.152;5.846;2023-10-13T08:06:09;17.52;;;9.07;;
52786;SDS011;38661;53.152;5.846;2023-10-13T08:08:36;16.60;;;7.63;;
52786;SDS011;38661;53.152;5.846;2023-10-13T08:11:06;18.55;;;7.88;;
52786;SDS011;38661;53.152;5.846;2023-10-13T08:14:07;17.77;;;7.28;;
52786;SDS011;38661;53.152;5.846;2023-10-13T08:16:39;25.40;;;8.27;;
52786;SDS011;38661;53.152;5.846;2023-10-13T08:19:18;19.52;;;8.18;;
52786;SDS011;38661;53.152;5.846;2023-10-13T08:22:05;17.25;;;7.53;;
52786;SDS011;38661;53.152;5.846;2023-10-13T08:24:49;14.50;;;7.03;;
52786;SDS011;38661;53.152;5.846;2023-10-13T08:27:20;18.67;;;7.30;;
52786;SDS011;38661;53.152;5.846;2023-10-13T08:29:59;14.45;;;6.10;;
52786;SDS011;38661;53.152;5.846;2023-10-13T08:33:02;16.75;;;6.97;;
52786;SDS011;38661;53.152;5.846;2023-10-13T08:35:42;14.98;;;6.90;;
52786;SDS011;38661;53.152;5.846;2023-10-13T08:38:22;13.40;;;6.25;;
52786;SDS011;38661;53.152;5.846;2023-10-13T08:40:55;16.15;;;7.25;;
52786;SDS011;38661;53.152;5.846;2023-10-13T08:43:45;15.00;;;7.22;;
52786;SDS011;38661;53.152;5.846;2023-10-13T08:46:19;16.10;;;6.80;;
52786;SDS011;38661;53.152;5.846;2023-10-13T08:49:00;10.75;;;7.18;;
52786;SDS011;38661;53.152;5.846;2023-10-13T08:51:40;13.23;;;6.57;;
52786;SDS011;38661;53.152;5.846;2023-10-13T08:54:15;12.40;;;7.47;;
52786;SDS011;38661;53.152;5.846;2023-10-13T08:56:58;12.77;;;7.72;;
52786;SDS011;38661;53.152;5.846;2023-10-13T08:59:34;15.13;;;7.90;;
52786;SDS011;38661;53.152;5.846;2023-10-13T09:02:11;17.63;;;8.82;;
52786;SDS011;38661;53.152;5.846;2023-10-13T09:04:43;15.73;;;8.57;;
52786;SDS011;38661;53.152;5.846;2023-10-13T09:07:27;15.93;;;8.40;;
52786;SDS011;38661;53.152;5.846;2023-10-13T09:10:00;16.30;;;9.00;;
52786;SDS011;38661;53.152;5.846;2023-10-13T09:12:36;14.43;;;7.90;;
52786;SDS011;38661;53.152;5.846;2023-10-13T09:15:05;17.80;;;8.85;;
52786;SDS011;38661;53.152;5.846;2023-10-13T09:17:42;17.60;;;8.63;;
52786;SDS011;38661;53.152;5.846;2023-10-13T09:20:38;13.02;;;8.57;;
52786;SDS011;38661;53.152;5.846;2023-10-13T09:23:08;18.55;;;8.20;;
52786;SDS011;38661;53.152;5.846;2023-10-13T09:25:35;15.70;;;9.18;;
52786;SDS011;38661;53.152;5.846;2023-10-13T09:28:18;17.63;;;8.10;;
52786;SDS011;38661;53.152;5.846;2023-10-13T09:30:54;13.18;;;7.47;;
52786;SDS011;38661;53.152;5.846;2023-10-13T09:33:27;21.08;;;8.00;;
52786;SDS011;38661;53.152;5.846;2023-10-13T09:36:15;13.15;;;7.40;;
52786;SDS011;38661;53.152;5.846;2023-10-13T09:38:42;12.60;;;7.15;;
52786;SDS011;38661;53.152;5.846;2023-10-13T09:41:26;14.15;;;6.43;;
52786;SDS011;38661;53.152;5.846;2023-10-13T09:44:00;13.98;;;7.70;;
52786;SDS011;38661;53.152;5.846;2023-10-13T09:46:37;13.68;;;6.95;;
52786;SDS011;38661;53.152;5.846;2023-10-13T09:49:19;12.80;;;6.78;;
52786;SDS011;38661;53.152;5.846;2023-10-13T09:52:28;15.52;;;7.22;;
52786;SDS011;38661;53.152;5.846;2023-10-13T09:55:13;10.65;;;7.03;;
52786;SDS011;38661;53.152;5.846;2023-10-13T09:57:58;13.45;;;6.40;;
52786;SDS011;38661;53.152;5.846;2023-10-13T10:01:19;10.70;;;6.50;;
52786;SDS011;38661;53.152;5.846;2023-10-13T10:04:13;11.15;;;7.32;;
52786;SDS011;38661;53.152;5.846;2023-10-13T10:06:59;14.18;;;7.07;;
52786;SDS011;38661;53.152;5.846;2023-10-13T10:09:31;19.55;;;6.50;;
52786;SDS011;38661;53.152;5.846;2023-10-13T10:17:45;16.33;;;6.95;;
52786;SDS011;38661;53.152;5.846;2023-10-13T10:20:12;15.88;;;6.82;;
52786;SDS011;38661;53.152;5.846;2023-10-13T10:22:54;11.35;;;6.30;;
52786;SDS011;38661;53.152;5.846;2023-10-13T10:25:30;14.45;;;6.32;;
52786;SDS011;38661;53.152;5.846;2023-10-13T10:28:04;15.45;;;6.10;;
52786;SDS011;38661;53.152;5.846;2023-10-13T10:30:33;11.50;;;5.50;;
52786;SDS011;38661;53.152;5.846;2023-10-13T10:33:29;17.30;;;6.50;;
52786;SDS011;38661;53.152;5.846;2023-10-13T10:36:01;15.63;;;7.63;;
52786;SDS011;38661;53.152;5.846;2023-10-13T10:38:27;13.68;;;6.72;;
52786;SDS011;38661;53.152;5.846;2023-10-13T10:41:00;12.02;;;5.85;;
52786;SDS011;38661;53.152;5.846;2023-10-13T10:46:18;15.95;;;6.43;;
52786;SDS011;38661;53.152;5.846;2023-10-13T10:48:50;14.02;;;5.93;;
52786;SDS011;38661;53.152;5.846;2023-10-13T10:51:21;18.60;;;6.47;;
52786;SDS011;38661;53.152;5.846;2023-10-13T10:53:51;14.77;;;6.25;;
52786;SDS011;38661;53.152;5.846;2023-10-13T10:56:18;17.55;;;6.60;;
52786;SDS011;38661;53.152;5.846;2023-10-13T10:59:01;12.77;;;5.97;;
52786;SDS011;38661;53.152;5.846;2023-10-13T11:01:33;13.20;;;6.20;;
52786;SDS011;38661;53.152;5.846;2023-10-13T11:03:59;16.75;;;6.85;;
52786;SDS011;38661;53.152;5.846;2023-10-13T11:06:56;18.30;;;6.88;;
52786;SDS011;38661;53.152;5.846;2023-10-13T11:09:33;17.98;;;6.60;;
52786;SDS011;38661;53.152;5.846;2023-10-13T11:12:14;16.48;;;6.85;;
52786;SDS011;38661;53.152;5.846;2023-10-13T11:14:44;15.73;;;6.40;;
52786;SDS011;38661;53.152;5.846;2023-10-13T11:17:35;13.95;;;6.15;;
52786;SDS011;38661;53.152;5.846;2023-10-13T11:20:12;14.98;;;6.68;;
52786;SDS011;38661;53.152;5.846;2023-10-13T11:22:48;15.57;;;6.93;;
52786;SDS011;38661;53.152;5.846;2023-10-13T11:25:25;18.13;;;6.40;;
52786;SDS011;38661;53.152;5.846;2023-10-13T11:28:09;12.55;;;5.80;;
52786;SDS011;38661;53.152;5.846;2023-10-13T11:30:45;15.55;;;6.78;;
52786;SDS011;38661;53.152;5.846;2023-10-13T11:33:16;12.70;;;6.32;;
52786;SDS011;38661;53.152;5.846;2023-10-13T11:36:08;16.17;;;5.72;;
52786;SDS011;38661;53.152;5.846;2023-10-13T11:38:45;14.40;;;6.20;;
52786;SDS011;38661;53.152;5.846;2023-10-13T11:41:14;15.07;;;6.78;;
52786;SDS011;38661;53.152;5.846;2023-10-13T11:43:43;15.07;;;5.97;;
52786;SDS011;38661;53.152;5.846;2023-10-13T11:46:12;16.50;;;6.72;;
52786;SDS011;38661;53.152;5.846;2023-10-13T11:48:43;14.20;;;6.22;;
52786;SDS011;38661;53.152;5.846;2023-10-13T11:51:12;21.80;;;7.15;;
52786;SDS011;38661;53.152;5.846;2023-10-13T11:53:51;13.25;;;6.68;;
52786;SDS011;38661;53.152;5.846;2023-10-13T11:56:17;18.85;;;7.13;;
52786;SDS011;38661;53.152;5.846;2023-10-13T11:58:47;16.13;;;7.25;;
52786;SDS011;38661;53.152;5.846;2023-10-13T12:01:13;15.88;;;7.43;;
52786;SDS011;38661;53.152;5.846;2023-10-13T12:03:44;19.38;;;7.47;;
52786;SDS011;38661;53.152;5.846;2023-10-13T12:06:29;20.70;;;7.55;;
52786;SDS011;38661;53.152;5.846;2023-10-13T12:09:05;15.68;;;7.78;;
52786;SDS011;38661;53.152;5.846;2023-10-13T12:11:49;15.05;;;7.28;;
52786;SDS011;38661;53.152;5.846;2023-10-13T12:14:19;13.35;;;7.13;;
52786;SDS011;38661;53.152;5.846;2023-10-13T12:16:57;16.40;;;7.63;;
52786;SDS011;38661;53.152;5.846;2023-10-13T12:19:29;21.52;;;9.07;;
52786;SDS011;38661;53.152;5.846;2023-10-13T12:21:55;18.80;;;8.65;;
52786;SDS011;38661;53.152;5.846;2023-10-13T12:24:27;22.17;;;8.32;;
52786;SDS011;38661;53.152;5.846;2023-10-13T12:27:02;15.45;;;8.40;;
52786;SDS011;38661;53.152;5.846;2023-10-13T12:29:44;17.35;;;7.15;;
52786;SDS011;38661;53.152;5.846;2023-10-13T12:32:13;17.35;;;8.40;;
52786;SDS011;38661;53.152;5.846;2023-10-13T12:34:40;13.90;;;7.10;;
52786;SDS011;38661;53.152;5.846;2023-10-13T12:40:09;15.70;;;7.30;;
52786;SDS011;38661;53.152;5.846;2023-10-13T12:45:49;14.70;;;7.97;;
52786;SDS011;38661;53.152;5.846;2023-10-13T12:48:35;19.73;;;9.52;;
52786;SDS011;38661;53.152;5.846;2023-10-13T12:51:42;19.08;;;9.52;;
52786;SDS011;38661;53.152;5.846;2023-10-13T12:54:35;15.10;;;7.30;;
52786;SDS011;38661;53.152;5.846;2023-10-13T12:58:20;18.10;;;8.43;;
52786;SDS011;38661;53.152;5.846;2023-10-13T13:00:59;19.17;;;9.15;;
52786;SDS011;38661;53.152;5.846;2023-10-13T13:03:54;19.92;;;9.27;;
52786;SDS011;38661;53.152;5.846;2023-10-13T13:06:46;21.88;;;9.82;;
52786;SDS011;38661;53.152;5.846;2023-10-13T13:12:11;19.23;;;9.52;;
52786;SDS011;38661;53.152;5.846;2023-10-13T13:14:46;28.48;;;9.63;;
52786;SDS011;38661;53.152;5.846;2023-10-13T13:17:15;17.25;;;7.70;;
52786;SDS011;38661;53.152;5.846;2023-10-13T13:19:41;20.15;;;9.25;;
52786;SDS011;38661;53.152;5.846;2023-10-13T13:22:25;22.55;;;10.25;;
52786;SDS011;38661;53.152;5.846;2023-10-13T13:24:57;25.90;;;8.68;;
52786;SDS011;38661;53.152;5.846;2023-10-13T13:27:32;20.25;;;9.90;;
52786;SDS011;38661;53.152;5.846;2023-10-13T13:29:58;18.45;;;8.13;;
52786;SDS011;38661;53.152;5.846;2023-10-13T13:32:24;19.10;;;7.88;;
52786;SDS011;38661;53.152;5.846;2023-10-13T13:34:53;19.23;;;8.70;;
52786;SDS011;38661;53.152;5.846;2023-10-13T13:37:31;20.55;;;8.68;;
52786;SDS011;38661;53.152;5.846;2023-10-13T13:40:03;21.67;;;9.02;;
52786;SDS011;38661;53.152;5.846;2023-10-13T13:43:04;33.83;;;9.98;;
52786;SDS011;38661;53.152;5.846;2023-10-13T13:45:39;22.25;;;9.27;;
52786;SDS011;38661;53.152;5.846;2023-10-13T13:48:07;18.00;;;7.90;;
52786;SDS011;38661;53.152;5.846;2023-10-13T13:50:33;20.60;;;8.60;;
52786;SDS011;38661;53.152;5.846;2023-10-13T13:53:09;21.80;;;8.27;;
52786;SDS011;38661;53.152;5.846;2023-10-13T13:55:35;30.83;;;9.13;;
52786;SDS011;38661;53.152;5.846;2023-10-13T13:58:18;28.00;;;9.43;;
52786;SDS011;38661;53.152;5.846;2023-10-13T14:00:58;17.98;;;7.82;;
52786;SDS011;38661;53.152;5.846;2023-10-13T14:03:50;26.40;;;9.27;;
52786;SDS011;38661;53.152;5.846;2023-10-13T14:06:20;22.20;;;8.18;;
52786;SDS011;38661;53.152;5.846;2023-10-13T14:09:01;25.85;;;9.52;;
52786;SDS011;38661;53.152;5.846;2023-10-13T14:12:01;19.05;;;8.70;;
52786;SDS011;38661;53.152;5.846;2023-10-13T14:14:48;22.90;;;8.90;;
52786;SDS011;38661;53.152;5.846;2023-10-13T14:17:23;24.60;;;9.20;;
52786;SDS011;38661;53.152;5.846;2023-10-13T14:20:01;23.35;;;8.43;;
52786;SDS011;38661;53.152;5.846;2023-10-13T14:22:47;22.65;;;8.70;;
52786;SDS011;38661;53.152;5.846;2023-10-13T14:25:13;19.10;;;7.38;;
52786;SDS011;38661;53.152;5.846;2023-10-13T14:27:40;23.77;;;8.32;;
52786;SDS011;38661;53.152;5.846;2023-10-13T14:30:07;22.15;;;9.05;;
52786;SDS011;38661;53.152;5.846;2023-10-13T14:32:33;19.35;;;8.10;;
52786;SDS011;38661;53.152;5.846;2023-10-13T14:35:05;21.35;;;8.98;;
52786;SDS011;38661;53.152;5.846;2023-10-13T14:37:39;19.25;;;8.25;;
52786;SDS011;38661;53.152;5.846;2023-10-13T14:40:06;20.42;;;8.10;;
52786;SDS011;38661;53.152;5.846;2023-10-13T14:42:37;21.70;;;8.35;;
52786;SDS011;38661;53.152;5.846;2023-10-13T14:45:08;24.83;;;8.55;;
52786;SDS011;38661;53.152;5.846;2023-10-13T14:47:38;23.50;;;8.38;;
52786;SDS011;38661;53.152;5.846;2023-10-13T14:50:07;26.77;;;9.80;;
52786;SDS011;38661;53.152;5.846;2023-10-13T14:52:39;30.92;;;10.35;;
52786;SDS011;38661;53.152;5.846;2023-10-13T14:55:05;20.77;;;7.47;;
52786;SDS011;38661;53.152;5.846;2023-10-13T14:57:47;26.35;;;9.43;;
52786;SDS011;38661;53.152;5.846;2023-10-13T15:00:15;23.33;;;9.18;;
52786;SDS011;38661;53.152;5.846;2023-10-13T15:02:53;32.85;;;10.90;;
52786;SDS011;38661;53.152;5.846;2023-10-13T15:05:29;25.77;;;9.30;;
52786;SDS011;38661;53.152;5.846;2023-10-13T15:07:55;23.23;;;9.35;;
52786;SDS011;38661;53.152;5.846;2023-10-13T15:10:25;28.25;;;10.48;;
52786;SDS011;38661;53.152;5.846;2023-10-13T15:12:51;26.90;;;9.40;;
52786;SDS011;38661;53.152;5.846;2023-10-13T15:15:16;32.60;;;10.85;;
52786;SDS011;38661;53.152;5.846;2023-10-13T15:17:44;32.90;;;10.82;;
52786;SDS011;38661;53.152;5.846;2023-10-13T15:20:11;26.13;;;8.10;;
52786;SDS011;38661;53.152;5.846;2023-10-13T15:22:46;33.80;;;11.23;;
52786;SDS011;38661;53.152;5.846;2023-10-13T15:25:14;34.58;;;10.07;;
52786;SDS011;38661;53.152;5.846;2023-10-13T15:27:52;25.45;;;9.15;;
52786;SDS011;38661;53.152;5.846;2023-10-13T15:30:22;35.17;;;9.00;;
52786;SDS011;38661;53.152;5.846;2023-10-13T15:32:56;28.75;;;10.50;;
52786;SDS011;38661;53.152;5.846;2023-10-13T15:35:22;30.17;;;9.27;;
52786;SDS011;38661;53.152;5.846;2023-10-13T15:38:01;34.92;;;10.20;;
52786;SDS011;38661;53.152;5.846;2023-10-13T15:40:27;29.42;;;8.82;;
52786;SDS011;38661;53.152;5.846;2023-10-13T15:42:53;27.30;;;8.68;;
52786;SDS011;38661;53.152;5.846;2023-10-13T15:45:24;26.27;;;8.95;;
52786;SDS011;38661;53.152;5.846;2023-10-13T15:47:57;23.50;;;8.87;;
52786;SDS011;38661;53.152;5.846;2023-10-13T15:50:23;25.55;;;8.57;;
52786;SDS011;38661;53.152;5.846;2023-10-13T15:52:52;24.98;;;8.55;;
52786;SDS011;38661;53.152;5.846;2023-10-13T15:56:04;26.42;;;8.20;;
52786;SDS011;38661;53.152;5.846;2023-10-13T15:58:45;27.13;;;8.20;;
52786;SDS011;38661;53.152;5.846;2023-10-13T16:01:15;25.13;;;7.80;;
52786;SDS011;38661;53.152;5.846;2023-10-13T16:03:45;25.95;;;9.35;;